Time;durP1;ratioP1;P1;durP2;ratioP2;P2;SDS_P1;SDS_P2;PMS_P1;PMS_P2;Temp;Humidity;BMP_temperature;BMP_pressure;BME280_temperature;BME280_humidity;BME280_pressure;Samples;Min_cycle;Max_cycle;Signal;HPM_P1;HPM_P2
2021/09/22 00:01:21;;;;;;;10.20;6.90;;;10.70;75.20;;;;;;4959730;29;20461;-76
2021/09/22 00:03:47;;;;;;;9.90;6.88;;;10.60;76.10;;;;;;4963064;29;20378;-77
2021/09/22 00:06:12;;;;;;;9.65;7.20;;;10.70;76.30;;;;;;4945796;28;20935;-76
2021/09/22 00:08:38;;;;;;;10.20;6.85;;;10.60;74.80;;;;;;4937339;29;20777;-77
2021/09/22 00:11:04;;;;;;;13.15;6.78;;;10.60;76.00;;;;;;4935482;29;20454;-77
2021/09/22 00:13:29;;;;;;;8.60;6.45;;;10.50;77.30;;;;;;4936060;29;20412;-77
2021/09/22 00:15:55;;;;;;;9.00;6.63;;;10.60;75.90;;;;;;4951392;29;20398;-77
2021/09/22 00:18:20;;;;;;;10.82;6.30;;;10.60;75.80;;;;;;4943427;28;20470;-77
2021/09/22 00:20:46;;;;;;;8.98;6.10;;;10.50;76.10;;;;;;4936611;29;20873;-76
2021/09/22 00:23:12;;;;;;;10.48;7.00;;;10.40;76.90;;;;;;4935778;29;20391;-76
2021/09/22 00:25:37;;;;;;;10.40;6.20;;;10.30;77.60;;;;;;4936213;29;20407;-75
2021/09/22 00:28:05;;;;;;;13.27;6.93;;;10.30;78.50;;;;;;4936776;29;20750;-75
2021/09/22 00:30:31;;;;;;;9.32;6.80;;;10.40;78.50;;;;;;4947114;29;20414;-75
2021/09/22 00:32:56;;;;;;;12.05;7.30;;;10.30;77.80;;;;;;4948534;28;20411;-76
2021/09/22 00:35:22;;;;;;;9.60;6.60;;;10.30;78.20;;;;;;4936241;29;20414;-75
2021/09/22 00:37:48;;;;;;;14.80;6.83;;;10.50;78.30;;;;;;4935739;29;20415;-77
2021/09/22 00:40:14;;;;;;;9.50;6.70;;;10.70;73.70;;;;;;4935342;29;20426;-77
2021/09/22 00:42:39;;;;;;;11.90;7.40;;;10.70;72.70;;;;;;4937155;29;20442;-76
2021/09/22 00:45:09;;;;;;;12.10;6.35;;;10.70;72.80;;;;;;4954977;29;20457;-77
2021/09/22 00:47:36;;;;;;;12.20;7.13;;;10.60;73.50;;;;;;4955856;28;20779;-76
2021/09/22 00:50:02;;;;;;;9.57;6.90;;;10.50;75.00;;;;;;4955327;28;20484;-76
2021/09/22 00:52:29;;;;;;;10.35;7.05;;;10.50;75.80;;;;;;4955002;28;20398;-76
2021/09/22 00:54:54;;;;;;;11.65;7.30;;;10.50;77.20;;;;;;4954535;29;20405;-76
2021/09/22 00:57:21;;;;;;;15.38;7.00;;;10.60;75.80;;;;;;4941720;28;20415;-77
2021/09/22 00:59:46;;;;;;;10.40;7.25;;;10.50;75.90;;;;;;4937537;29;20451;-77
2021/09/22 01:02:12;;;;;;;12.47;7.30;;;10.40;77.00;;;;;;4936224;29;20396;-76
2021/09/22 01:04:39;;;;;;;12.30;7.35;;;10.40;78.40;;;;;;4956079;29;20826;-77
2021/09/22 01:07:07;;;;;;;13.32;7.00;;;10.30;77.60;;;;;;4956947;29;20405;-76
2021/09/22 01:09:33;;;;;;;12.63;7.70;;;10.20;79.40;;;;;;4957238;29;20405;-76
2021/09/22 01:11:59;;;;;;;12.80;7.93;;;10.10;81.00;;;;;;4956936;28;20804;-76
2021/09/22 01:14:26;;;;;;;12.88;7.38;;;10.30;80.60;;;;;;4943187;28;20455;-76
2021/09/22 01:16:52;;;;;;;10.20;7.35;;;10.20;81.00;;;;;;4955360;28;20418;-76
2021/09/22 01:19:19;;;;;;;13.52;8.20;;;10.10;82.00;;;;;;4955342;28;20748;-76
2021/09/22 01:21:47;;;;;;;14.73;7.87;;;10.10;82.80;;;;;;4954756;28;20469;-76
2021/09/22 01:24:12;;;;;;;13.98;8.20;;;10.00;84.00;;;;;;4942360;28;20808;-76
2021/09/22 01:26:39;;;;;;;10.03;7.57;;;10.00;85.90;;;;;;4935523;29;20508;-76
2021/09/22 01:29:05;;;;;;;13.20;7.30;;;10.10;83.40;;;;;;4935104;29;20407;-75
2021/09/22 01:31:35;;;;;;;14.27;8.25;;;10.00;83.90;;;;;;4934703;29;20399;-76
2021/09/22 01:34:01;;;;;;;12.02;7.60;;;9.90;85.00;;;;;;4945614;29;20412;-75
2021/09/22 01:36:27;;;;;;;12.93;8.15;;;9.90;86.20;;;;;;4953455;29;20513;-76
2021/09/22 01:38:52;;;;;;;12.73;8.02;;;9.90;86.20;;;;;;4952361;29;20484;-75
2021/09/22 01:41:18;;;;;;;13.13;8.73;;;9.80;86.70;;;;;;4951950;29;20398;-75
2021/09/22 01:43:44;;;;;;;12.57;8.55;;;9.80;88.00;;;;;;4953555;29;20418;-75
2021/09/22 01:46:11;;;;;;;15.23;8.73;;;9.90;88.80;;;;;;4953750;29;20398;-76
2021/09/22 01:48:37;;;;;;;14.33;8.63;;;10.00;87.40;;;;;;4953601;29;20389;-75
2021/09/22 01:51:04;;;;;;;13.52;9.15;;;9.90;85.80;;;;;;4939543;29;20434;-75
2021/09/22 01:53:31;;;;;;;14.85;9.07;;;9.90;86.40;;;;;;4934843;29;20396;-75
2021/09/22 01:55:58;;;;;;;15.77;9.70;;;9.90;87.20;;;;;;4934539;29;20459;-75
2021/09/22 01:58:25;;;;;;;20.13;9.88;;;9.90;87.60;;;;;;4935245;29;20392;-75
2021/09/22 02:01:13;;;;;;;14.52;9.73;;;9.80;87.60;;;;;;4946257;29;20527;-75
2021/09/22 02:03:39;;;;;;;14.88;10.10;;;9.80;88.20;;;;;;4953469;28;20845;-75
2021/09/22 02:06:04;;;;;;;15.38;10.05;;;9.80;89.40;;;;;;4953705;29;20465;-75
2021/09/22 02:08:30;;;;;;;19.13;10.23;;;9.80;89.60;;;;;;4953612;29;20480;-75
2021/09/22 02:10:56;;;;;;;14.57;10.30;;;9.80;89.40;;;;;;4940797;28;20411;-75
2021/09/22 02:13:21;;;;;;;15.90;10.40;;;9.80;89.70;;;;;;4933764;29;20396;-75
2021/09/22 02:15:47;;;;;;;16.10;10.57;;;9.80;89.50;;;;;;4945917;29;20891;-75
2021/09/22 02:18:13;;;;;;;15.80;10.13;;;9.80;89.40;;;;;;4953121;28;20445;-75
2021/09/22 02:20:38;;;;;;;17.20;10.57;;;9.80;89.40;;;;;;4949349;28;20399;-74
2021/09/22 02:23:04;;;;;;;14.70;10.20;;;9.80;89.90;;;;;;4948346;29;20388;-73
2021/09/22 02:25:30;;;;;;;18.23;11.20;;;9.80;90.10;;;;;;4949507;29;20407;-76
2021/09/22 02:27:55;;;;;;;16.02;9.75;;;9.80;89.90;;;;;;4942890;29;20395;-76
2021/09/22 02:30:22;;;;;;;15.60;10.07;;;9.70;90.60;;;;;;4947623;29;20824;-76
2021/09/22 02:32:48;;;;;;;18.27;10.52;;;9.80;91.10;;;;;;4952178;29;20401;-76
2021/09/22 02:35:14;;;;;;;19.25;11.05;;;9.80;91.20;;;;;;4953224;28;20402;-76
2021/09/22 02:37:40;;;;;;;19.85;11.30;;;9.80;91.20;;;;;;4952769;29;20468;-74
2021/09/22 02:40:13;;;;;;;16.40;10.70;;;9.80;91.30;;;;;;4934711;29;20506;-74
2021/09/22 02:42:40;;;;;;;18.08;10.93;;;9.70;91.80;;;;;;4933375;29;20443;-74
2021/09/22 02:45:07;;;;;;;19.02;12.05;;;9.70;91.80;;;;;;4933452;29;20445;-75
2021/09/22 02:47:33;;;;;;;22.07;11.30;;;9.80;91.60;;;;;;4951166;29;20410;-75
2021/09/22 02:49:58;;;;;;;17.20;11.07;;;9.80;91.30;;;;;;4952637;28;20404;-75
2021/09/22 02:52:24;;;;;;;19.40;10.63;;;9.80;90.50;;;;;;4952398;29;20517;-74
2021/09/22 02:54:49;;;;;;;19.50;11.70;;;9.80;90.40;;;;;;4949174;29;20773;-75
2021/09/22 02:57:15;;;;;;;15.20;11.10;;;9.80;90.40;;;;;;4932167;29;20426;-75
2021/09/22 02:59:40;;;;;;;19.57;11.70;;;9.80;91.70;;;;;;4934039;29;20398;-72
2021/09/22 03:02:06;;;;;;;16.47;10.70;;;9.90;89.50;;;;;;4956239;28;20493;-73
2021/09/22 03:04:32;;;;;;;18.23;12.20;;;9.80;89.10;;;;;;4970877;28;20384;-73
2021/09/22 03:06:57;;;;;;;17.80;10.53;;;9.80;89.20;;;;;;4933965;28;20498;-73
2021/09/22 03:09:24;;;;;;;18.13;11.80;;;9.90;89.10;;;;;;4935458;29;20877;-74
2021/09/22 03:11:50;;;;;;;18.42;12.20;;;9.80;90.00;;;;;;4935321;29;20695;-75
2021/09/22 03:14:16;;;;;;;18.80;11.70;;;9.80;88.20;;;;;;4938502;29;20451;-75
2021/09/22 03:16:41;;;;;;;19.97;12.07;;;9.80;88.70;;;;;;4939712;29;20830;-75
2021/09/22 03:19:07;;;;;;;19.33;11.60;;;9.70;89.10;;;;;;4934875;29;20404;-73
2021/09/22 03:21:32;;;;;;;18.73;11.80;;;9.70;90.00;;;;;;4933211;29;20430;-74
2021/09/22 03:23:58;;;;;;;20.27;12.20;;;9.70;90.10;;;;;;4947796;29;20791;-73
2021/09/22 03:26:24;;;;;;;18.07;11.17;;;9.70;90.40;;;;;;4952659;28;20621;-73
2021/09/22 03:28:50;;;;;;;21.70;12.07;;;9.70;90.50;;;;;;4955265;29;20405;-74
2021/09/22 03:31:16;;;;;;;23.35;12.10;;;9.70;90.10;;;;;;4956040;29;20397;-74
2021/09/22 03:33:41;;;;;;;20.00;11.70;;;9.70;90.60;;;;;;4944385;28;20402;-74
2021/09/22 03:36:07;;;;;;;19.08;11.93;;;9.80;91.20;;;;;;4935195;29;20862;-73
2021/09/22 03:38:33;;;;;;;18.47;12.17;;;9.70;89.70;;;;;;4933317;29;20762;-74
2021/09/22 03:40:59;;;;;;;20.90;12.00;;;9.70;89.90;;;;;;4933152;29;20384;-74
2021/09/22 03:43:25;;;;;;;23.75;12.18;;;9.70;91.00;;;;;;4942021;29;20533;-74
2021/09/22 03:45:51;;;;;;;24.03;12.10;;;9.70;91.50;;;;;;4952194;29;20402;-74
2021/09/22 03:48:17;;;;;;;20.10;12.40;;;9.70;92.30;;;;;;4952275;29;20900;-73
2021/09/22 03:50:43;;;;;;;23.25;12.27;;;9.70;92.10;;;;;;4953057;28;20811;-74
2021/09/22 03:53:09;;;;;;;22.00;12.20;;;9.70;92.40;;;;;;4946239;28;20431;-73
2021/09/22 03:55:35;;;;;;;19.15;12.40;;;9.70;92.90;;;;;;4933624;29;20884;-73
2021/09/22 03:58:00;;;;;;;19.77;12.75;;;9.60;92.90;;;;;;4934275;29;20406;-76
2021/09/22 04:00:26;;;;;;;19.83;13.47;;;9.60;93.50;;;;;;4947607;28;20413;-75
2021/09/22 04:02:51;;;;;;;20.63;12.17;;;9.70;93.90;;;;;;4962759;28;20407;-75
2021/09/22 04:05:17;;;;;;;21.07;13.00;;;9.70;92.50;;;;;;4962942;28;20996;-75
2021/09/22 04:07:43;;;;;;;18.77;12.93;;;9.70;93.60;;;;;;4952188;29;20520;-77
2021/09/22 04:10:09;;;;;;;24.63;13.60;;;9.70;94.00;;;;;;4952188;29;20582;-76
2021/09/22 04:12:35;;;;;;;20.85;12.93;;;9.60;94.30;;;;;;4940476;29;20412;-77
2021/09/22 04:15:00;;;;;;;21.33;12.90;;;9.60;95.50;;;;;;4941119;29;20430;-77
2021/09/22 04:17:26;;;;;;;21.40;13.60;;;9.60;95.60;;;;;;4956136;28;20401;-76
2021/09/22 04:19:52;;;;;;;22.10;13.60;;;9.60;95.60;;;;;;4955954;28;21026;-76
2021/09/22 04:22:17;;;;;;;25.13;14.20;;;9.70;95.70;;;;;;4947112;28;20889;-77
2021/09/22 04:24:43;;;;;;;24.53;15.47;;;9.70;94.00;;;;;;4940515;29;20388;-75
2021/09/22 04:27:09;;;;;;;25.87;16.90;;;9.60;94.30;;;;;;4938337;29;20466;-76
2021/09/22 04:29:34;;;;;;;29.83;18.00;;;9.60;94.80;;;;;;4939704;29;20752;-75
2021/09/22 04:32:00;;;;;;;30.35;19.45;;;9.60;95.10;;;;;;4942381;29;20817;-76
2021/09/22 04:34:26;;;;;;;46.47;23.65;;;9.60;94.70;;;;;;4937617;29;20498;-77
2021/09/22 04:36:51;;;;;;;36.40;22.73;;;9.60;94.70;;;;;;4935113;29;20403;-77
2021/09/22 04:39:17;;;;;;;37.60;25.35;;;9.60;95.40;;;;;;4936094;29;20396;-77
2021/09/22 04:41:42;;;;;;;38.10;25.95;;;9.60;94.00;;;;;;4939039;29;20409;-77
2021/09/22 04:44:08;;;;;;;38.38;26.30;;;9.60;94.30;;;;;;4955544;29;20405;-76
2021/09/22 04:46:34;;;;;;;41.88;27.67;;;9.60;94.90;;;;;;4971122;28;20417;-77
2021/09/22 04:49:00;;;;;;;40.60;26.83;;;9.60;95.00;;;;;;4956559;28;20833;-76
2021/09/22 04:51:25;;;;;;;42.22;28.77;;;9.50;95.10;;;;;;4955425;28;20496;-77
2021/09/22 04:53:51;;;;;;;42.03;26.33;;;9.60;95.20;;;;;;4938359;29;20396;-76
2021/09/22 04:56:17;;;;;;;38.92;25.88;;;9.60;95.20;;;;;;4939191;29;20419;-77
2021/09/22 04:58:43;;;;;;;39.40;24.98;;;9.60;94.10;;;;;;4937971;29;20407;-77
2021/09/22 05:01:09;;;;;;;40.13;24.33;;;9.60;94.10;;;;;;4936829;29;20396;-77
2021/09/22 05:03:34;;;;;;;37.75;23.25;;;9.60;94.00;;;;;;4940263;29;20776;-77
2021/09/22 05:06:00;;;;;;;37.88;23.70;;;9.60;93.80;;;;;;4954398;28;20397;-77
2021/09/22 05:08:26;;;;;;;32.70;22.30;;;9.60;93.80;;;;;;4960120;28;20390;-77
2021/09/22 05:10:54;;;;;;;31.73;21.50;;;9.50;93.80;;;;;;4961270;28;20388;-77
2021/09/22 05:13:20;;;;;;;31.27;20.23;;;9.50;93.80;;;;;;4954900;29;20380;-77
2021/09/22 05:15:46;;;;;;;31.20;19.05;;;9.50;93.60;;;;;;4949565;29;20418;-75
2021/09/22 05:18:11;;;;;;;27.90;17.60;;;9.50;93.30;;;;;;4955269;28;20460;-77
2021/09/22 05:20:37;;;;;;;28.03;18.53;;;9.50;92.30;;;;;;4956073;28;20424;-77
2021/09/22 05:23:03;;;;;;;29.00;18.85;;;9.60;91.80;;;;;;4954486;28;20402;-76
2021/09/22 05:25:29;;;;;;;24.42;16.42;;;9.50;92.40;;;;;;4954091;28;20759;-76
2021/09/22 05:27:55;;;;;;;27.55;17.10;;;9.50;93.00;;;;;;4936140;29;20482;-76
2021/09/22 05:30:21;;;;;;;31.73;20.42;;;9.50;92.60;;;;;;4934647;29;20458;-76
2021/09/22 05:32:46;;;;;;;31.45;17.10;;;9.60;92.50;;;;;;4937905;29;20399;-76
2021/09/22 05:35:12;;;;;;;35.47;15.95;;;9.60;92.30;;;;;;4936177;29;20451;-76
2021/09/22 05:37:37;;;;;;;23.13;15.80;;;9.60;91.60;;;;;;4936937;29;20585;-76
2021/09/22 05:40:05;;;;;;;26.35;16.60;;;9.60;90.80;;;;;;4957326;29;20390;-77
2021/09/22 05:42:31;;;;;;;23.90;15.25;;;9.60;90.80;;;;;;4956422;29;20464;-75
2021/09/22 05:44:57;;;;;;;24.17;14.85;;;9.70;90.00;;;;;;4958166;28;20536;-76
2021/09/22 05:47:22;;;;;;;28.95;15.88;;;9.70;90.10;;;;;;4953324;28;20986;-76
2021/09/22 05:49:48;;;;;;;25.23;16.60;;;9.80;88.80;;;;;;4951159;28;20426;-76
2021/09/22 05:52:14;;;;;;;28.52;16.80;;;9.80;88.10;;;;;;4935895;29;20395;-76
2021/09/22 05:54:40;;;;;;;22.83;15.65;;;9.90;87.00;;;;;;4935447;29;20387;-75
2021/09/22 05:57:05;;;;;;;25.03;15.50;;;10.00;85.80;;;;;;4933623;29;20461;-75
2021/09/22 05:59:31;;;;;;;30.90;19.67;;;10.10;84.80;;;;;;4934831;29;20394;-76
2021/09/22 06:01:57;;;;;;;24.43;16.10;;;10.10;82.50;;;;;;4958003;28;20417;-76
2021/09/22 06:04:23;;;;;;;27.53;16.00;;;10.20;82.00;;;;;;4954156;29;20459;-75
2021/09/22 06:06:48;;;;;;;26.98;16.42;;;10.20;80.60;;;;;;4951445;29;20577;-75
2021/09/22 06:09:14;;;;;;;25.75;15.13;;;10.30;78.80;;;;;;4953883;28;20487;-78
2021/09/22 06:11:40;;;;;;;27.42;16.13;;;10.40;78.10;;;;;;4953883;28;20445;-75
2021/09/22 06:14:05;;;;;;;26.20;16.00;;;10.50;76.50;;;;;;4947341;29;20408;-75
2021/09/22 06:16:31;;;;;;;25.92;16.75;;;10.60;75.80;;;;;;4951518;29;21647;-75
2021/09/22 06:18:57;;;;;;;27.67;15.95;;;10.60;74.50;;;;;;4951120;28;20408;-77
2021/09/22 06:21:24;;;;;;;21.70;14.23;;;10.70;72.20;;;;;;4959855;28;20409;-77
2021/09/22 06:23:53;;;;;;;24.55;16.00;;;10.80;70.10;;;;;;4946556;28;20407;-76
2021/09/22 06:26:20;;;;;;;27.45;15.95;;;10.80;69.10;;;;;;4960176;28;20453;-75
2021/09/22 06:28:46;;;;;;;26.00;15.95;;;10.90;67.10;;;;;;4972735;28;20400;-77
2021/09/22 06:31:12;;;;;;;25.30;15.10;;;11.00;66.60;;;;;;4951337;28;20467;-78
2021/09/22 06:33:37;;;;;;;28.00;15.27;;;11.00;66.10;;;;;;4958834;28;20854;-77
2021/09/22 06:36:03;;;;;;;29.60;16.10;;;11.00;66.50;;;;;;4945395;28;20406;-77
2021/09/22 06:38:29;;;;;;;24.13;14.88;;;11.00;65.90;;;;;;4953632;28;20456;-75
2021/09/22 06:40:55;;;;;;;23.20;15.10;;;11.20;64.20;;;;;;4949001;28;20399;-75
2021/09/22 06:43:21;;;;;;;26.85;14.20;;;11.20;64.30;;;;;;4941494;29;20405;-77
2021/09/22 06:45:46;;;;;;;27.70;15.82;;;11.20;64.20;;;;;;4945512;28;20426;-77
2021/09/22 06:48:12;;;;;;;23.80;15.40;;;11.20;64.00;;;;;;4950130;28;20800;-76
2021/09/22 06:50:37;;;;;;;23.30;14.88;;;11.30;63.00;;;;;;4944446;28;20399;-76
2021/09/22 06:53:03;;;;;;;22.73;14.52;;;11.40;60.90;;;;;;4945966;29;20408;-76
2021/09/22 06:55:29;;;;;;;22.35;14.75;;;11.60;60.50;;;;;;4950852;29;20708;-76
2021/09/22 06:57:54;;;;;;;23.33;14.55;;;11.60;58.10;;;;;;4948118;29;20927;-76
2021/09/22 07:00:20;;;;;;;25.95;14.60;;;11.60;58.10;;;;;;4937647;29;20407;-75
2021/09/22 07:02:46;;;;;;;22.05;15.20;;;11.60;57.50;;;;;;4947159;29;20469;-75
2021/09/22 07:05:13;;;;;;;21.83;14.18;;;11.60;57.40;;;;;;4939339;29;20717;-77
2021/09/22 07:07:39;;;;;;;24.83;15.02;;;11.70;56.10;;;;;;4941174;29;20426;-77
2021/09/22 07:10:06;;;;;;;20.17;14.60;;;11.80;56.20;;;;;;4948721;28;20447;-78
2021/09/22 07:12:32;;;;;;;24.13;16.10;;;12.00;54.80;;;;;;4951100;29;20422;-77
2021/09/22 07:14:58;;;;;;;29.33;16.55;;;12.10;53.30;;;;;;4953810;28;20898;-75
2021/09/22 07:17:24;;;;;;;29.93;16.40;;;12.20;52.40;;;;;;4957001;28;20407;-76
2021/09/22 07:19:49;;;;;;;43.87;16.20;;;12.30;51.40;;;;;;4954122;28;20898;-76
2021/09/22 07:22:15;;;;;;;24.10;15.17;;;12.40;50.50;;;;;;4949488;28;20409;-76
2021/09/22 07:24:42;;;;;;;25.80;15.15;;;12.50;49.70;;;;;;4971863;28;20439;-77
2021/09/22 07:27:07;;;;;;;23.38;14.40;;;12.60;49.50;;;;;;4967099;28;20464;-75
2021/09/22 07:29:33;;;;;;;23.67;15.27;;;12.60;48.90;;;;;;4972750;28;20402;-75
2021/09/22 07:31:59;;;;;;;28.47;15.83;;;12.80;48.80;;;;;;4949363;28;20415;-73
2021/09/22 07:34:26;;;;;;;33.57;15.60;;;12.90;48.60;;;;;;4955101;29;20508;-75
2021/09/22 07:36:52;;;;;;;28.30;15.30;;;13.00;48.00;;;;;;4955976;29;20416;-74
2021/09/22 07:39:18;;;;;;;25.90;16.27;;;13.00;46.80;;;;;;4952148;28;20410;-74
2021/09/22 07:41:44;;;;;;;25.80;16.60;;;13.20;46.30;;;;;;4951922;28;20409;-72
2021/09/22 07:44:09;;;;;;;25.50;16.27;;;13.30;46.20;;;;;;4940586;28;20911;-72
2021/09/22 07:46:35;;;;;;;31.70;17.30;;;13.40;45.30;;;;;;4950768;28;20417;-75
2021/09/22 07:49:01;;;;;;;29.42;16.42;;;13.60;45.00;;;;;;4967433;28;20415;-76
2021/09/22 07:51:27;;;;;;;28.23;17.05;;;13.80;44.80;;;;;;4956738;28;20564;-75
2021/09/22 07:53:53;;;;;;;27.80;17.33;;;14.00;43.10;;;;;;4960079;28;20564;-77
2021/09/22 07:56:21;;;;;;;29.48;18.85;;;14.00;40.90;;;;;;4952100;29;20447;-78
2021/09/22 07:58:47;;;;;;;27.23;18.10;;;14.10;40.30;;;;;;4953358;28;20516;-76
2021/09/22 08:01:13;;;;;;;31.67;18.80;;;14.20;39.90;;;;;;4948573;28;20913;-76
2021/09/22 08:03:39;;;;;;;33.28;17.80;;;14.30;39.70;;;;;;4956547;29;20481;-76
2021/09/22 08:06:05;;;;;;;33.70;18.00;;;14.40;39.50;;;;;;4971163;28;20386;-77
2021/09/22 08:08:31;;;;;;;36.45;17.88;;;14.60;38.70;;;;;;4970779;28;20406;-76
2021/09/22 08:10:56;;;;;;;34.50;18.50;;;14.70;38.90;;;;;;4959021;28;20478;-78
2021/09/22 08:13:23;;;;;;;31.35;18.95;;;14.80;37.70;;;;;;4958972;28;20416;-75
2021/09/22 08:15:49;;;;;;;30.02;18.73;;;14.80;37.90;;;;;;4967311;28;20418;-74
2021/09/22 08:18:14;;;;;;;37.03;20.00;;;14.80;37.80;;;;;;4968804;28;20428;-76
2021/09/22 08:20:40;;;;;;;32.87;19.17;;;14.80;37.80;;;;;;4972540;28;20397;-75
2021/09/22 08:23:06;;;;;;;35.57;20.03;;;15.00;37.50;;;;;;4967074;28;20437;-75
2021/09/22 08:25:31;;;;;;;32.10;19.52;;;15.10;36.90;;;;;;4968485;29;20478;-75
2021/09/22 08:27:57;;;;;;;33.40;18.63;;;15.20;36.40;;;;;;4951267;28;20789;-78
2021/09/22 08:30:23;;;;;;;33.00;19.13;;;15.40;36.20;;;;;;4957529;28;20409;-79
2021/09/22 08:32:49;;;;;;;34.80;19.87;;;15.50;35.90;;;;;;4960453;28;20398;-79
2021/09/22 08:35:14;;;;;;;34.17;19.60;;;15.60;35.70;;;;;;4962667;29;20393;-78
2021/09/22 08:37:40;;;;;;;31.20;19.30;;;15.60;35.20;;;;;;4962380;28;20413;-78
2021/09/22 08:40:08;;;;;;;34.13;21.25;;;15.60;34.70;;;;;;4954239;29;20831;-78
2021/09/22 08:42:34;;;;;;;36.90;21.47;;;15.60;34.50;;;;;;4955538;28;20390;-77
2021/09/22 08:45:00;;;;;;;33.85;20.50;;;15.60;34.60;;;;;;4955328;29;20942;-78
2021/09/22 08:47:26;;;;;;;37.33;21.90;;;15.50;34.40;;;;;;4952594;29;20417;-79
2021/09/22 08:49:52;;;;;;;30.02;19.65;;;15.60;34.30;;;;;;4961084;28;20390;-78
2021/09/22 08:52:17;;;;;;;32.00;19.73;;;15.70;34.50;;;;;;4958967;28;20503;-78
2021/09/22 08:54:43;;;;;;;30.90;19.75;;;15.90;34.40;;;;;;4945369;29;20415;-77
2021/09/22 08:57:09;;;;;;;31.17;19.00;;;16.10;33.90;;;;;;4943111;29;20384;-79
2021/09/22 08:59:35;;;;;;;34.22;19.58;;;16.10;33.10;;;;;;4940955;29;20467;-77
2021/09/22 09:02:11;;;;;;;35.35;19.20;;;16.20;33.10;;;;;;4947682;28;20402;-76
2021/09/22 09:04:39;;;;;;;39.22;21.67;;;16.40;32.30;;;;;;4943496;29;20430;-78
2021/09/22 09:07:05;;;;;;;31.23;19.20;;;16.50;32.20;;;;;;4948512;29;20840;-79
2021/09/22 09:09:39;;;;;;;31.23;19.95;;;16.60;32.00;;;;;;4960515;28;20465;-79
2021/09/22 09:12:18;;;;;;;34.97;20.20;;;16.70;32.00;;;;;;4958413;28;20425;-78
2021/09/22 09:14:55;;;;;;;37.75;19.85;;;16.60;31.10;;;;;;4959706;29;20430;-78
2021/09/22 09:17:41;;;;;;;32.22;18.98;;;16.60;31.20;;;;;;4964857;28;20851;-78
2021/09/22 09:20:24;;;;;;;32.15;19.45;;;16.60;31.40;;;;;;4960386;29;20425;-78
2021/09/22 09:23:02;;;;;;;35.92;19.80;;;16.70;31.70;;;;;;4959817;28;20816;-77
2021/09/22 09:25:30;;;;;;;29.55;19.25;;;16.70;31.60;;;;;;4967776;28;20399;-77
2021/09/22 09:27:56;;;;;;;35.50;20.10;;;16.80;31.30;;;;;;4957182;29;20418;-78
2021/09/22 09:30:25;;;;;;;33.00;19.52;;;16.90;31.40;;;;;;4958756;28;20481;-80
2021/09/22 09:32:51;;;;;;;34.33;20.35;;;17.00;31.10;;;;;;4951136;28;20398;-79
2021/09/22 09:35:27;;;;;;;32.38;20.65;;;17.20;30.90;;;;;;4942048;28;20395;-79
2021/09/22 09:37:55;;;;;;;34.90;21.53;;;17.40;30.40;;;;;;4959802;28;20406;-79
2021/09/22 09:40:33;;;;;;;36.10;20.90;;;17.30;29.20;;;;;;4967676;28;20445;-76
2021/09/22 09:43:04;;;;;;;34.33;19.92;;;17.30;29.10;;;;;;4956549;28;20388;-79
2021/09/22 09:45:39;;;;;;;41.30;20.52;;;17.40;29.10;;;;;;4959609;28;20416;-78
2021/09/22 09:48:13;;;;;;;35.03;22.00;;;17.60;29.00;;;;;;4975328;28;20434;-77
2021/09/22 09:50:41;;;;;;;31.02;21.58;;;17.70;28.50;;;;;;4974839;28;20416;-78
2021/09/22 09:53:08;;;;;;;37.20;21.20;;;17.60;28.20;;;;;;4953591;28;20512;-77
2021/09/22 09:55:38;;;;;;;35.22;21.13;;;17.50;28.20;;;;;;4962303;28;20405;-75
2021/09/22 09:58:03;;;;;;;39.33;21.98;;;17.60;28.00;;;;;;4951892;29;20398;-76
2021/09/22 10:00:38;;;;;;;36.83;20.53;;;17.60;28.10;;;;;;4951903;28;20837;-76
2021/09/22 10:03:12;;;;;;;38.90;22.67;;;17.70;27.00;;;;;;4952090;28;20405;-78
2021/09/22 10:05:39;;;;;;;37.55;20.83;;;17.70;27.10;;;;;;4973681;28;20410;-77
2021/09/22 10:08:05;;;;;;;35.25;20.45;;;17.90;27.20;;;;;;4968906;28;20936;-76
2021/09/22 10:10:30;;;;;;;35.60;20.90;;;18.30;27.00;;;;;;4964400;28;20394;-76
2021/09/22 10:12:57;;;;;;;32.80;21.15;;;18.30;26.00;;;;;;4963011;28;20408;-75
2021/09/22 10:15:23;;;;;;;34.58;20.83;;;18.40;25.80;;;;;;4947857;28;20801;-73
2021/09/22 10:17:50;;;;;;;31.35;20.25;;;18.30;25.80;;;;;;4944078;28;20403;-77
2021/09/22 10:20:19;;;;;;;38.40;20.75;;;18.40;25.00;;;;;;4935399;29;20411;-74
2021/09/22 10:22:44;;;;;;;35.67;20.50;;;18.30;24.90;;;;;;4935783;29;20413;-75
2021/09/22 10:25:10;;;;;;;38.85;24.10;;;18.40;25.50;;;;;;4935266;29;20905;-72
2021/09/22 10:27:37;;;;;;;32.70;20.98;;;18.20;25.50;;;;;;4937132;29;20470;-76
2021/09/22 10:30:07;;;;;;;33.92;20.20;;;18.20;25.50;;;;;;4939374;29;20742;-75
2021/09/22 10:32:36;;;;;;;36.53;20.92;;;18.30;25.20;;;;;;4939923;28;20466;-76
2021/09/22 10:35:20;;;;;;;34.35;20.05;;;18.50;24.80;;;;;;4945530;29;21348;-75
2021/09/22 10:37:46;;;;;;;31.55;19.00;;;18.60;23.90;;;;;;4956686;28;20488;-76
2021/09/22 10:40:31;;;;;;;31.83;19.65;;;18.50;23.50;;;;;;4938415;29;20400;-76
2021/09/22 10:43:16;;;;;;;31.73;20.00;;;18.40;23.30;;;;;;4937879;29;20601;-75
2021/09/22 10:45:58;;;;;;;32.88;18.83;;;18.30;22.30;;;;;;4948976;28;20411;-77
2021/09/22 10:48:25;;;;;;;33.00;19.17;;;18.40;22.10;;;;;;4934055;29;20423;-76
2021/09/22 10:50:53;;;;;;;28.85;19.85;;;18.60;22.20;;;;;;4934189;29;20491;-76
2021/09/22 10:53:30;;;;;;;32.65;19.17;;;18.60;22.00;;;;;;4934679;29;20407;-76
2021/09/22 10:56:03;;;;;;;32.58;20.40;;;18.50;22.30;;;;;;4952703;28;20445;-78
2021/09/22 10:58:50;;;;;;;33.10;19.25;;;18.40;22.70;;;;;;4950912;28;20417;-76
2021/09/22 11:01:31;;;;;;;28.92;17.10;;;18.40;22.60;;;;;;4951365;28;20397;-77
2021/09/22 11:03:58;;;;;;;30.70;16.85;;;18.50;20.90;;;;;;4954346;29;20890;-77
2021/09/22 11:06:48;;;;;;;25.88;14.45;;;18.60;21.20;;;;;;4950215;28;20529;-76
2021/09/22 11:09:17;;;;;;;28.03;16.00;;;18.70;19.10;;;;;;4942287;29;20473;-76
2021/09/22 11:14:41;;;;;;;24.65;15.55;;;18.90;18.20;;;;;;4952847;28;20485;-77
2021/09/22 11:17:10;;;;;;;28.38;15.90;;;18.80;17.80;;;;;;4946104;28;20402;-76
2021/09/22 11:19:37;;;;;;;26.48;16.92;;;19.00;18.30;;;;;;4952589;28;20412;-77
2021/09/22 11:22:05;;;;;;;27.97;15.80;;;19.00;18.70;;;;;;4952835;28;20889;-76
2021/09/22 11:24:32;;;;;;;32.25;16.42;;;18.90;18.80;;;;;;4961281;28;20409;-76
2021/09/22 11:27:02;;;;;;;31.73;16.80;;;18.90;19.30;;;;;;4953831;29;20939;-77
2021/09/22 11:29:35;;;;;;;28.17;17.73;;;19.00;19.20;;;;;;4960781;28;20397;-76
2021/09/22 11:32:07;;;;;;;33.20;17.60;;;19.00;18.70;;;;;;4954724;28;20389;-76
2021/09/22 11:34:36;;;;;;;34.53;17.63;;;18.90;18.80;;;;;;4955294;28;20404;-75
2021/09/22 11:37:13;;;;;;;26.13;16.20;;;19.20;18.10;;;;;;4961396;28;20402;-73
2021/09/22 11:39:41;;;;;;;33.75;18.30;;;19.50;18.30;;;;;;4937995;29;20407;-74
2021/09/22 11:42:08;;;;;;;30.75;17.40;;;19.50;17.70;;;;;;4940221;29;20402;-75
2021/09/22 11:44:34;;;;;;;29.48;17.48;;;19.50;17.70;;;;;;4954069;28;20490;-74
2021/09/22 11:47:10;;;;;;;32.58;18.67;;;19.70;17.00;;;;;;4953913;28;20406;-74
2021/09/22 11:49:42;;;;;;;34.97;19.30;;;19.60;17.10;;;;;;4968675;28;20402;-75
2021/09/22 11:52:10;;;;;;;36.20;19.13;;;19.60;17.20;;;;;;4943475;29;20846;-74
2021/09/22 11:54:35;;;;;;;33.07;18.27;;;19.60;17.50;;;;;;4936861;29;20486;-76
2021/09/22 11:57:06;;;;;;;34.63;18.37;;;19.60;17.70;;;;;;4937221;29;20399;-76
2021/09/22 11:59:33;;;;;;;33.42;17.98;;;19.60;18.30;;;;;;4936736;29;20857;-75
2021/09/22 12:02:01;;;;;;;33.80;18.90;;;19.50;18.60;;;;;;4936166;29;20413;-75
2021/09/22 12:04:41;;;;;;;32.20;18.92;;;19.50;18.60;;;;;;4936229;29;20400;-75
2021/09/22 12:07:08;;;;;;;40.08;19.45;;;19.50;19.00;;;;;;4936742;29;20404;-76
2021/09/22 12:09:48;;;;;;;32.05;19.00;;;19.50;18.70;;;;;;4936839;29;20399;-76
2021/09/22 12:12:20;;;;;;;31.50;19.30;;;19.40;18.90;;;;;;4936188;29;20396;-76
2021/09/22 12:14:47;;;;;;;35.45;18.20;;;19.40;18.90;;;;;;4936443;28;20466;-76
2021/09/22 12:17:15;;;;;;;31.55;18.88;;;19.50;18.70;;;;;;4947896;29;20417;-74
2021/09/22 12:19:42;;;;;;;33.80;18.15;;;19.60;18.30;;;;;;4955707;28;20413;-74
2021/09/22 12:22:08;;;;;;;29.90;18.63;;;19.60;18.50;;;;;;4955604;28;20394;-76
2021/09/22 12:24:37;;;;;;;28.02;17.60;;;19.60;18.10;;;;;;4957006;28;20406;-75
2021/09/22 12:27:03;;;;;;;29.80;18.27;;;19.60;18.30;;;;;;4956799;28;20871;-75
2021/09/22 12:29:29;;;;;;;33.00;18.70;;;19.80;18.40;;;;;;4957766;29;20398;-76
2021/09/22 12:32:04;;;;;;;27.98;17.50;;;19.90;17.70;;;;;;4945018;28;20398;-75
2021/09/22 12:34:30;;;;;;;28.23;16.45;;;19.80;18.30;;;;;;4956839;28;20398;-75
2021/09/22 12:36:56;;;;;;;31.85;17.38;;;20.00;18.70;;;;;;4954156;28;20505;-74